LXT weather

Lee's Summit Municipal Airport
Lee's Summit, Missouri, United States

Public forecast

Using degrees Fahrenheit for public forecast. Weather courtesy of forecast.io.

Current aviation weather report (METAR) for Lee's Summit Municipal Airport

Retrieved 2019/10/23 18:53 UTC (31 minutes ago):

KLXT 231853Z AUTO 22019G29KT 10SM CLR 21/05 A2985 RMK AO2 PK WND 23032/1808 SLP103 T02110050

Closest aviation forecast (TAF) to Lee's Summit Municipal Airport

Closest forecast is Charles B. Wheeler Downtown Airport, 14.2 nm (26.4 km) NW. Retrieved 2019/10/23 18:27 UTC (57 minutes ago):

TAF KMKC 231725Z 2318/2418 23015G30KT P6SM SCT150 FM232200 31009KT P6SM BKN120 FM241200 01008KT P6SM OVC050